Hawk Run, Pennsylvania
Current Conditions -  °F | °C
As of 1:54 PM on Monday 22 Dec 2014 (Local Time) from KFIG Reporting Station
Overcast Overcast  
Wind Chill: 30°   Ceiling: 3600
Heat Index: 35°   Visibility: 10mi
Dew Point: 25°   Wind: 6mph
Humidity: 67%   Direction: 140°SE
Pressure: 30.1"   Gusts: NA
Location:  40.94°N, 78.22°W
Report Text: KFIG 221854Z AUTO 14005KT 10SM SCT022 OVC036 02/M04 A3010 RMK AO2 SLP213 T00171039
Loading
Personal Weather Stations






























Interactive Weather Map New forecast layout! Learn more

10-Day Weather Forecast

Advertisements
Track Severe Weather on mobile